Aérodrome :
LOGIN :

S'inscrire | Disclaimer

   EN    FR    IT 

 










Légende :    VFR   VFR Marginal   IFR   IFR Intensif   IFR Très Intensif
Visi : 
Plafond : 
>= 8 km
>= 3000ft
5 à 8 km
1000 à 3000 ft
1500m à 5 km
500 à 1000 ft
800 à 1500m
200 à 500 ft
< 800m
< 200 ft
Symboles :   Orages  Brouillard  Fortes neiges  Fortes précipitations  Vent > 20 kt
SIGMETs :   Divers  Orages  Givrage  Turbulence  Onde Orograph.  Cendres Volcan.







- Altitude de l'aérodrome : 505 ft
- Code IATA : SXB
- Voir les cartes d'approche


LFST - Strasbourg

DERNIER METAR :
  • 190900Z AUTO VRB01KT 9999 OVC060/// ///TCU 14/12 Q1005 NOSIG

METARs EXPIRÉS :
  • 190830Z AUTO VRB01KT 9999 FEW008/// OVC060/// ///TCU 14/12 Q1005 NOSIG
  • 190800Z AUTO VRB01KT 9999 SCT007/// SCT011/// OVC062/// ///TCU 14/12 Q1005 NOSIG
  • 190730Z AUTO VRB01KT 9999 FEW005/// OVC068/// ///TCU 13/12 Q1005 NOSIG
  • 190700Z AUTO 26003KT 8000 -RADZ FEW014/// OVC068/// ///TCU 13/12 Q1005 NOSIG
  • 190630Z AUTO VRB02KT 8000 -RADZ FEW012/// BKN068/// OVC092/// ///TCU 13/12 Q1005 NOSIG

TAF TAF LFST
Valide du 19 à 06h jusqu'au 20 à 06h UTC


190500Z 1906/2006 34005KT 9999 FEW030 BKN060
TEMPO 1906/2006 -SHRA FEW030TCU
PROB40
TEMPO 1914/1921 VRB15G30KT 2000 TSRA SCT025CB
Pas de NOTAMs connus pour ce terrain.



MET'MAP, la Météo Aéronautique d'un coup d'oeil ! - Copyright ORBIFLY Décembre 2007 - Disclaimer

ORBIFLY MET'MAP TEAM :

Programmation & Développement : Alexandra Zaïnal
Conception & Développement : Baudouin d'Aumeries
Co-Programmation & Développement : Marc-Olivier Méhu
Soutien technique & logistique : Manuel Goepfert

Contact : metmap@orbifly.com




SOURCES & CREDITS :

   NOAA